Time;durP1;ratioP1;P1;durP2;ratioP2;P2;SDS_P1;SDS_P2;PMS_P1;PMS_P2;Temp;Humidity;BMP_temperature;BMP_pressure;BME280_temperature;BME280_humidity;BME280_pressure;Samples;Min_cycle;Max_cycle;Signal;HPM_P1;HPM_P2
2022/10/22 00:00:09;;;;;;;408.40;226.47;;;;;;;9.50;75.95;100580.44;338091;29;1173;-76
2022/10/22 00:00:21;;;;;;;406.02;224.77;;;;;;;9.50;75.62;100582.19;333699;29;2202;-77
2022/10/22 00:00:31;;;;;;;410.85;236.57;;;;;;;9.51;75.73;100582.16;332846;29;1704;-77
2022/10/22 00:00:41;;;;;;;412.13;239.63;;;;;;;9.53;75.79;100584.72;332981;29;1002;-76
2022/10/22 00:00:52;;;;;;;411.48;233.25;;;;;;;9.53;75.66;100585.56;331702;29;1396;-76
2022/10/22 00:01:02;;;;;;;408.67;227.67;;;;;;;9.55;75.36;100583.78;332930;29;1225;-76
2022/10/22 00:01:13;;;;;;;407.05;222.52;;;;;;;9.54;75.33;100579.44;330787;29;1572;-76
2022/10/22 00:01:23;;;;;;;403.50;215.63;;;;;;;9.54;75.52;100578.59;332009;29;1273;-75
2022/10/22 00:01:34;;;;;;;403.27;206.95;;;;;;;9.53;75.43;100585.56;333193;29;1936;-76
2022/10/22 00:01:44;;;;;;;403.53;209.40;;;;;;;9.54;75.88;100581.19;330609;29;2263;-76
2022/10/22 00:01:54;;;;;;;407.45;220.77;;;;;;;9.53;75.69;100585.56;327948;30;1238;-77
2022/10/22 00:02:06;;;;;;;406.83;224.67;;;;;;;9.52;75.52;100578.66;335133;29;2244;-76
2022/10/22 00:02:19;;;;;;;407.50;227.25;;;;;;;9.51;75.80;100576.94;336980;29;2241;-76
2022/10/22 00:02:29;;;;;;;406.17;225.85;;;;;;;9.51;75.97;100582.16;335328;29;2464;-76
2022/10/22 00:02:40;;;;;;;405.07;224.57;;;;;;;9.53;75.56;100579.50;335541;29;1213;-76
2022/10/22 00:02:50;;;;;;;404.38;223.80;;;;;;;9.52;75.75;100581.25;332897;29;2204;-76
2022/10/22 00:03:01;;;;;;;403.63;224.70;;;;;;;9.54;75.69;100579.44;328540;29;1264;-76
2022/10/22 00:03:11;;;;;;;403.35;224.63;;;;;;;9.54;75.68;100583.81;330246;29;1606;-75
2022/10/22 00:03:22;;;;;;;402.47;221.87;;;;;;;9.53;76.16;100576.91;331192;29;1366;-76
2022/10/22 00:03:32;;;;;;;402.67;217.73;;;;;;;9.51;75.97;100574.31;327081;29;1946;-76
2022/10/22 00:03:43;;;;;;;403.35;219.27;;;;;;;9.52;75.72;100573.41;323599;30;2275;-76
2022/10/22 00:03:53;;;;;;;404.23;220.97;;;;;;;9.48;75.70;100571.75;323234;30;1266;-76
2022/10/22 00:04:04;;;;;;;401.05;214.30;;;;;;;9.50;75.82;100585.66;316969;30;2765;-76
2022/10/22 00:04:14;;;;;;;400.05;213.07;;;;;;;9.49;76.01;100578.72;314377;31;3180;-76
2022/10/22 00:04:25;;;;;;;400.27;207.60;;;;;;;9.48;75.78;100577.00;313016;31;4934;-77
2022/10/22 00:04:35;;;;;;;405.05;213.32;;;;;;;9.48;76.04;100574.38;312942;31;4130;-77
2022/10/22 00:04:47;;;;;;;406.03;216.20;;;;;;;9.49;75.81;100577.84;312818;31;3469;-77
2022/10/22 00:04:57;;;;;;;406.60;221.40;;;;;;;9.48;75.91;100576.13;313580;31;3985;-76
2022/10/22 00:05:08;;;;;;;408.97;224.17;;;;;;;9.45;76.20;100571.81;315198;31;819;-76
2022/10/22 00:05:18;;;;;;;406.70;216.30;;;;;;;9.43;76.31;100578.84;313638;31;1463;-76
2022/10/22 00:05:28;;;;;;;404.27;211.93;;;;;;;9.34;76.70;100581.63;311123;31;2527;-76
2022/10/22 00:05:39;;;;;;;404.05;215.68;;;;;;;9.26;77.17;100575.69;308394;31;2279;-76
2022/10/22 00:05:49;;;;;;;409.43;219.87;;;;;;;9.25;77.29;100576.59;306297;31;2818;-76
2022/10/22 00:06:00;;;;;;;412.33;224.57;;;;;;;9.27;76.94;100580.03;306928;31;3107;-76
2022/10/22 00:06:10;;;;;;;410.70;220.23;;;;;;;9.26;77.00;100573.94;307823;31;1545;-76
2022/10/22 00:06:20;;;;;;;405.87;217.77;;;;;;;9.30;76.56;100573.00;304351;31;3755;-76
2022/10/22 00:06:31;;;;;;;403.15;213.02;;;;;;;9.32;76.89;100580.81;306211;31;4823;-76
2022/10/22 00:06:43;;;;;;;402.10;207.90;;;;;;;9.33;76.85;100580.78;308739;31;4161;-76
2022/10/22 00:06:54;;;;;;;401.08;206.55;;;;;;;9.36;76.56;100566.78;306377;32;928;-76
2022/10/22 00:07:04;;;;;;;401.83;208.80;;;;;;;9.37;76.67;100576.34;308277;31;4263;-76
2022/10/22 00:07:16;;;;;;;402.70;209.00;;;;;;;9.38;76.78;100570.22;306332;32;4074;-76
2022/10/22 00:07:26;;;;;;;405.23;214.30;;;;;;;9.39;76.44;100574.56;301436;32;2467;-76
2022/10/22 00:07:37;;;;;;;406.63;216.20;;;;;;;9.40;76.45;100572.81;297065;33;1324;-76
2022/10/22 00:07:47;;;;;;;408.98;231.23;;;;;;;9.40;76.33;100562.38;302497;32;3653;-77
2022/10/22 00:07:58;;;;;;;412.63;237.50;;;;;;;9.41;76.18;100575.41;300753;32;4901;-77
2022/10/22 00:08:08;;;;;;;413.60;237.10;;;;;;;9.43;76.31;100575.34;295579;33;1387;-77
2022/10/22 00:08:18;;;;;;;410.20;224.47;;;;;;;9.43;76.23;100562.31;297501;32;5050;-77
2022/10/22 00:08:29;;;;;;;404.98;221.30;;;;;;;9.45;76.14;100570.97;295825;33;4963;-76
2022/10/22 00:08:39;;;;;;;407.00;227.73;;;;;;;9.47;76.45;100566.56;298018;33;1251;-76
2022/10/22 00:08:50;;;;;;;408.23;227.80;;;;;;;9.48;76.39;100570.91;298082;32;6216;-77
2022/10/22 00:09:00;;;;;;;408.70;223.40;;;;;;;9.47;76.23;100564.81;296574;33;5638;-77
2022/10/22 00:09:12;;;;;;;406.57;216.77;;;;;;;9.49;76.28;100568.25;296003;33;1489;-77
2022/10/22 00:09:22;;;;;;;406.48;221.77;;;;;;;9.49;75.92;100563.03;290741;33;1310;-77
2022/10/22 00:09:32;;;;;;;407.75;229.50;;;;;;;9.51;76.01;100568.22;288865;33;4709;-77
2022/10/22 00:09:43;;;;;;;406.77;232.30;;;;;;;9.47;76.17;100567.44;285195;34;4517;-77
2022/10/22 00:09:53;;;;;;;407.27;227.30;;;;;;;9.47;76.06;100569.19;283922;34;1367;-77
2022/10/22 00:10:06;;;;;;;407.37;231.40;;;;;;;9.46;76.32;100563.09;282533;34;6165;-77
2022/10/22 00:10:17;;;;;;;407.25;232.68;;;;;;;9.45;75.73;100565.75;282296;34;7751;-77
2022/10/22 00:10:29;;;;;;;403.65;229.73;;;;;;;9.45;76.25;100565.75;280270;34;7157;-79
2022/10/22 00:10:40;;;;;;;402.20;221.43;;;;;;;9.45;76.16;100565.75;278742;35;1501;-78
2022/10/22 00:12:41;;;;;;;393.71;197.00;;;;;;;9.40;75.85;100565.84;2503335;27;20262;-79
2022/10/22 00:12:51;;;;;;;398.60;205.20;;;;;;;9.39;76.38;100565.88;353222;27;963;-78
2022/10/22 00:13:02;;;;;;;397.77;206.60;;;;;;;9.41;76.13;100564.09;351681;28;848;-78
2022/10/22 00:13:12;;;;;;;399.08;205.93;;;;;;;9.43;76.18;100564.91;348814;28;1330;-78
2022/10/22 00:13:22;;;;;;;401.40;204.97;;;;;;;9.40;76.50;100565.84;346140;28;1374;-77
2022/10/22 00:13:33;;;;;;;405.02;210.95;;;;;;;9.41;76.44;100564.09;346183;28;4795;-77
2022/10/22 00:13:43;;;;;;;402.83;207.73;;;;;;;9.41;76.88;100559.72;345879;28;6870;-77
2022/10/22 00:13:54;;;;;;;406.33;211.05;;;;;;;9.39;76.44;100564.13;346244;28;1042;-77
2022/10/22 00:14:04;;;;;;;404.50;210.50;;;;;;;9.39;76.64;100564.13;346583;28;1969;-77
2022/10/22 00:14:15;;;;;;;404.33;209.85;;;;;;;9.39;76.53;100561.50;345723;28;4258;-77
2022/10/22 00:14:28;;;;;;;401.30;208.83;;;;;;;9.39;76.41;100558.88;346343;28;829;-81
2022/10/22 00:14:39;;;;;;;400.63;207.60;;;;;;;9.38;76.87;100558.91;349177;28;1467;-78
2022/10/22 00:14:49;;;;;;;399.50;209.70;;;;;;;9.38;76.89;100557.16;351667;28;1363;-77
2022/10/22 00:15:00;;;;;;;399.37;212.17;;;;;;;9.40;76.79;100563.22;350775;28;1238;-78
2022/10/22 00:15:10;;;;;;;401.83;211.52;;;;;;;9.43;76.86;100563.16;349141;28;1302;-78
2022/10/22 00:15:21;;;;;;;404.27;214.10;;;;;;;9.40;76.99;100563.22;348922;28;804;-79
2022/10/22 00:15:32;;;;;;;407.08;214.82;;;;;;;9.42;76.69;100563.19;348023;28;1046;-77
2022/10/22 00:15:43;;;;;;;404.65;213.52;;;;;;;9.42;76.68;100564.06;350727;28;1291;-80
2022/10/22 00:15:53;;;;;;;403.73;213.93;;;;;;;9.42;76.92;100564.06;351845;28;1352;-78
2022/10/22 00:16:04;;;;;;;404.83;208.07;;;;;;;9.40;76.27;100562.38;347408;28;1181;-78
2022/10/22 00:16:14;;;;;;;406.85;212.27;;;;;;;9.40;76.56;100562.38;348833;28;1270;-78
2022/10/22 00:16:25;;;;;;;404.52;212.32;;;;;;;9.40;76.73;100563.22;347528;28;1045;-77
2022/10/22 00:16:35;;;;;;;402.67;217.20;;;;;;;9.40;76.72;100558.00;347582;28;1314;-78
2022/10/22 00:16:46;;;;;;;399.85;210.40;;;;;;;9.39;76.95;100564.13;345971;28;1428;-77
2022/10/22 00:16:59;;;;;;;401.40;209.13;;;;;;;9.42;76.74;100560.56;343859;28;1366;-78
2022/10/22 00:17:10;;;;;;;402.15;205.27;;;;;;;9.42;76.78;100561.44;347403;28;890;-78
2022/10/22 00:17:20;;;;;;;405.37;210.50;;;;;;;9.44;76.55;100569.25;347505;28;931;-78
2022/10/22 00:17:30;;;;;;;404.50;216.93;;;;;;;9.43;76.48;100563.16;345397;28;1707;-77
2022/10/22 00:17:41;;;;;;;405.57;223.30;;;;;;;9.42;76.32;100557.97;343289;28;1281;-77
2022/10/22 00:17:51;;;;;;;405.88;227.27;;;;;;;9.42;76.69;100563.19;343589;28;931;-77
2022/10/22 00:18:02;;;;;;;410.87;236.70;;;;;;;9.40;76.66;100560.59;343959;28;801;-77
2022/10/22 00:18:14;;;;;;;409.02;233.75;;;;;;;9.40;76.68;100563.22;342275;28;1328;-77
2022/10/22 00:18:24;;;;;;;404.30;221.02;;;;;;;9.43;76.75;100562.31;343576;28;1520;-78
2022/10/22 00:18:36;;;;;;;405.27;217.73;;;;;;;9.41;76.56;100559.72;342775;28;1140;-78
2022/10/22 00:18:47;;;;;;;404.30;211.65;;;;;;;9.40;76.71;100558.00;342221;28;897;-78
2022/10/22 00:18:57;;;;;;;406.67;211.80;;;;;;;9.38;76.83;100557.16;342155;28;1201;-77
2022/10/22 00:19:08;;;;;;;404.53;208.07;;;;;;;9.40;76.86;100558.00;338705;29;1373;-79
2022/10/22 00:19:18;;;;;;;405.88;211.20;;;;;;;9.40;76.96;100559.75;342034;28;1136;-77
2022/10/22 00:19:28;;;;;;;405.63;218.77;;;;;;;9.41;76.88;100553.63;341325;28;1297;-77
2022/10/22 00:19:39;;;;;;;409.43;220.37;;;;;;;9.44;76.73;100558.78;340151;29;1371;-78
2022/10/22 00:19:49;;;;;;;408.93;218.67;;;;;;;9.43;76.78;100568.38;338130;29;1202;-78
2022/10/22 00:20:00;;;;;;;407.23;214.73;;;;;;;9.45;76.77;100552.69;337980;29;1188;-78
2022/10/22 00:20:10;;;;;;;407.93;220.27;;;;;;;9.46;76.75;100557.00;338001;29;1228;-78
2022/10/22 00:20:21;;;;;;;408.00;217.57;;;;;;;9.44;76.56;100559.66;335491;29;1314;-78
2022/10/22 00:20:32;;;;;;;405.02;215.77;;;;;;;9.44;76.48;100562.25;338252;29;1514;-78
2022/10/22 00:20:42;;;;;;;403.05;216.88;;;;;;;9.44;76.66;100564.03;336927;29;1344;-78
2022/10/22 00:20:53;;;;;;;405.33;222.13;;;;;;;9.45;76.85;100558.75;336970;29;872;-78
2022/10/22 00:21:03;;;;;;;404.25;217.95;;;;;;;9.42;76.36;100556.22;340560;28;1469;-78
2022/10/22 00:21:14;;;;;;;408.20;217.87;;;;;;;9.37;76.46;100555.44;340818;28;1325;-78
2022/10/22 00:21:27;;;;;;;405.85;215.30;;;;;;;9.35;76.72;100554.63;335344;29;1303;-78
2022/10/22 00:21:38;;;;;;;405.25;219.20;;;;;;;9.34;76.75;100550.28;331861;29;976;-77
2022/10/22 00:21:48;;;;;;;406.13;222.33;;;;;;;9.33;76.59;100556.41;333645;29;1246;-77
2022/10/22 00:21:59;;;;;;;403.67;216.75;;;;;;;9.32;77.00;100559.91;334608;29;1004;-77
2022/10/22 00:22:09;;;;;;;404.00;218.43;;;;;;;9.31;76.61;100547.72;336900;29;1259;-77
2022/10/22 00:22:20;;;;;;;404.23;213.65;;;;;;;9.31;77.30;100555.56;334634;29;1505;-76
2022/10/22 00:22:30;;;;;;;406.00;218.53;;;;;;;9.28;77.17;100553.03;333952;29;1561;-78
2022/10/22 00:22:41;;;;;;;405.40;214.93;;;;;;;9.28;77.29;100553.03;335051;29;2067;-76
2022/10/22 00:22:51;;;;;;;405.03;222.17;;;;;;;9.28;77.14;100553.03;333451;29;6867;-76
2022/10/22 00:23:01;;;;;;;404.88;223.23;;;;;;;9.26;77.38;100547.81;335008;29;4245;-76
2022/10/22 00:23:12;;;;;;;408.50;232.10;;;;;;;9.29;77.10;100549.50;334874;28;1832;-75
2022/10/22 00:23:22;;;;;;;406.75;224.52;;;;;;;9.28;76.87;100548.66;338800;29;4280;-76
2022/10/22 00:23:33;;;;;;;407.53;223.00;;;;;;;9.26;77.29;100555.66;334654;29;1730;-76
2022/10/22 00:23:43;;;;;;;406.42;213.85;;;;;;;9.26;77.11;100547.81;336554;29;1616;-76
2022/10/22 00:23:54;;;;;;;406.10;212.87;;;;;;;9.26;77.15;100549.56;339476;29;925;-76
2022/10/22 00:24:05;;;;;;;407.17;211.40;;;;;;;9.27;77.38;100548.69;335438;29;1380;-76
2022/10/22 00:24:15;;;;;;;404.35;209.18;;;;;;;9.27;77.26;100551.28;336640;29;1239;-76
2022/10/22 00:24:25;;;;;;;407.40;213.63;;;;;;;9.26;77.59;100549.56;336710;29;1779;-76
2022/10/22 00:24:36;;;;;;;405.88;217.07;;;;;;;9.26;77.71;100550.44;329249;29;1222;-77
2022/10/22 00:24:47;;;;;;;409.50;221.88;;;;;;;9.24;77.22;100547.00;333315;29;2005;-77
2022/10/22 00:24:57;;;;;;;411.87;223.97;;;;;;;9.24;77.31;100541.78;331222;29;2691;-77
2022/10/22 00:25:07;;;;;;;412.23;226.27;;;;;;;9.24;77.59;100546.13;327993;30;1301;-77
2022/10/22 00:25:19;;;;;;;409.20;225.77;;;;;;;9.23;77.50;100544.41;327170;29;2351;-76
2022/10/22 00:25:30;;;;;;;403.50;218.65;;;;;;;9.24;77.50;100549.59;327297;29;2331;-77
2022/10/22 00:25:40;;;;;;;403.10;218.20;;;;;;;9.24;77.21;100547.00;330659;29;903;-77
2022/10/22 00:25:52;;;;;;;404.58;223.25;;;;;;;9.24;77.35;100543.53;327963;30;1230;-77
2022/10/22 00:26:02;;;;;;;407.10;231.13;;;;;;;9.24;77.18;100547.00;327039;30;1688;-76
2022/10/22 00:26:13;;;;;;;408.13;233.87;;;;;;;9.25;77.66;100547.84;326181;30;1327;-76
2022/10/22 00:26:23;;;;;;;408.65;233.48;;;;;;;9.26;77.38;100544.34;325542;30;1087;-76
2022/10/22 00:26:33;;;;;;;407.80;231.07;;;;;;;9.26;77.35;100539.13;323653;30;1806;-76
2022/10/22 00:26:44;;;;;;;408.67;218.50;;;;;;;9.26;77.22;100542.59;320668;30;2800;-76
2022/10/22 00:26:54;;;;;;;406.43;209.33;;;;;;;9.27;77.52;100546.06;320907;30;905;-76
2022/10/22 00:27:05;;;;;;;405.83;204.93;;;;;;;9.27;77.35;100546.94;324150;30;3603;-77
2022/10/22 00:27:16;;;;;;;405.40;217.35;;;;;;;9.27;77.50;100546.06;321349;30;3256;-77
2022/10/22 00:27:27;;;;;;;405.03;222.53;;;;;;;9.29;77.45;100541.69;322321;30;3229;-78
2022/10/22 00:27:38;;;;;;;406.08;227.82;;;;;;;9.29;77.25;100545.16;325027;30;983;-76
2022/10/22 00:27:48;;;;;;;410.63;226.33;;;;;;;9.27;77.08;100540.84;318086;30;2997;-77
2022/10/22 00:27:58;;;;;;;410.15;221.63;;;;;;;9.29;77.33;100546.91;316646;30;3161;-76
2022/10/22 00:28:10;;;;;;;408.17;219.90;;;;;;;9.28;77.62;100543.44;316359;31;1228;-76
2022/10/22 00:28:21;;;;;;;406.20;224.85;;;;;;;9.26;77.27;100539.13;321661;30;2828;-76
2022/10/22 00:28:32;;;;;;;406.58;220.98;;;;;;;9.25;77.39;100545.25;319993;30;2325;-76
2022/10/22 00:28:42;;;;;;;406.02;219.10;;;;;;;9.25;77.28;100542.63;317868;31;2888;-76
2022/10/22 00:28:52;;;;;;;402.90;213.43;;;;;;;9.27;77.27;100551.28;316239;31;1238;-76
2022/10/22 00:29:03;;;;;;;402.83;205.50;;;;;;;9.28;77.35;100542.56;317070;31;3544;-77
2022/10/22 00:29:13;;;;;;;406.40;209.07;;;;;;;9.28;77.10;100540.81;314511;31;4273;-77
2022/10/22 00:29:24;;;;;;;406.92;209.30;;;;;;;9.29;77.19;100541.69;313859;31;1424;-76
2022/10/22 00:29:34;;;;;;;407.63;217.30;;;;;;;9.28;77.38;100546.03;315576;31;4369;-76
2022/10/22 00:29:45;;;;;;;407.83;213.07;;;;;;;9.27;77.61;100539.09;310757;31;4425;-76
2022/10/22 00:29:55;;;;;;;408.17;222.15;;;;;;;9.28;77.40;100542.56;311827;31;907;-77
2022/10/22 00:30:06;;;;;;;406.27;222.50;;;;;;;9.28;77.04;100537.34;312114;31;3880;-77
2022/10/22 00:30:16;;;;;;;402.75;221.65;;;;;;;9.28;77.36;100542.56;306833;31;4238;-76
2022/10/22 00:30:27;;;;;;;402.60;214.95;;;;;;;9.28;77.61;100538.22;304715;31;3247;-76
2022/10/22 00:30:37;;;;;;;406.40;223.82;;;;;;;9.30;77.33;100546.00;306378;32;1061;-76
2022/10/22 00:30:48;;;;;;;406.90;225.40;;;;;;;9.29;77.41;100537.31;304451;32;3071;-76
2022/10/22 00:30:59;;;;;;;404.30;218.20;;;;;;;9.30;77.40;100536.44;302361;32;3828;-76
2022/10/22 00:31:09;;;;;;;403.52;213.07;;;;;;;9.30;77.31;100541.66;304379;32;829;-76
2022/10/22 00:31:20;;;;;;;403.57;212.77;;;;;;;9.32;77.53;100536.41;299893;32;5180;-76
2022/10/22 00:31:30;;;;;;;403.30;216.52;;;;;;;9.32;77.52;100539.00;301259;32;6297;-76
2022/10/22 00:31:41;;;;;;;401.20;216.10;;;;;;;9.33;77.38;100540.72;299810;32;4726;-76
2022/10/22 00:31:51;;;;;;;400.55;216.32;;;;;;;9.32;77.31;100539.00;293009;33;1288;-76
2022/10/22 00:32:02;;;;;;;402.10;221.23;;;;;;;9.32;77.21;100539.00;288087;33;6547;-77
2022/10/22 00:32:12;;;;;;;405.27;227.35;;;;;;;9.33;77.15;100541.59;289967;33;6229;-77
2022/10/22 00:32:22;;;;;;;409.73;231.87;;;;;;;9.31;77.46;100537.28;290228;34;891;-77
2022/10/22 00:32:33;;;;;;;410.48;230.77;;;;;;;9.29;77.54;100542.53;283731;34;5405;-77
2022/10/22 00:32:43;;;;;;;407.67;222.20;;;;;;;9.29;77.58;100545.16;282233;34;4357;-77
2022/10/22 00:32:54;;;;;;;408.92;223.88;;;;;;;9.27;77.63;100541.72;283630;34;850;-77
2022/10/22 00:33:04;;;;;;;406.07;217.10;;;;;;;9.26;77.67;100539.13;285648;34;4862;-77
2022/10/22 00:33:14;;;;;;;407.83;220.57;;;;;;;9.24;77.57;100540.91;284224;34;6650;-77
2022/10/22 00:33:25;;;;;;;406.23;221.53;;;;;;;9.23;77.89;100539.19;283639;34;890;-77
2022/10/22 00:33:35;;;;;;;408.40;222.45;;;;;;;9.22;77.86;100540.09;280886;34;8842;-76
2022/10/22 00:33:46;;;;;;;408.60;225.37;;;;;;;9.18;77.58;100551.47;278507;34;9631;-76
2022/10/22 00:33:57;;;;;;;405.77;219.45;;;;;;;9.17;77.64;100542.78;277502;35;9929;-76
2022/10/22 00:34:07;;;;;;;404.73;221.73;;;;;;;9.17;77.64;100542.78;276036;35;950;-76
2022/10/22 00:36:31;;;;;;;393.05;206.90;;;;;;;9.11;77.48;100540.28;2495590;27;20489;-77
2022/10/22 00:36:41;;;;;;;403.57;223.10;;;;;;;9.10;77.84;100535.13;352778;28;1525;-77
2022/10/22 00:36:52;;;;;;;407.13;226.57;;;;;;;9.12;77.80;100546.38;350615;28;1798;-76
2022/10/22 00:37:02;;;;;;;405.92;223.75;;;;;;;9.13;77.65;100535.91;348313;28;1236;-76
2022/10/22 00:37:13;;;;;;;404.13;221.13;;;;;;;9.14;77.69;100547.22;347520;28;884;-76
2022/10/22 00:37:23;;;;;;;404.90;223.23;;;;;;;9.16;77.77;100548.03;347430;28;1255;-76
2022/10/22 00:37:33;;;;;;;406.93;226.13;;;;;;;9.17;78.26;100552.38;347489;28;1484;-76
2022/10/22 00:37:44;;;;;;;407.50;226.02;;;;;;;9.19;78.07;100535.78;347494;28;920;-76
2022/10/22 00:37:54;;;;;;;407.57;227.33;;;;;;;9.20;77.43;100547.09;347367;28;1226;-76
2022/10/22 00:38:05;;;;;;;409.77;225.73;;;;;;;9.20;77.50;100544.47;347417;28;1584;-76
2022/10/22 00:38:15;;;;;;;408.53;226.57;;;;;;;9.19;78.06;100542.75;348840;28;1241;-76
2022/10/22 00:38:26;;;;;;;405.20;221.17;;;;;;;9.21;77.99;100541.84;346053;28;1247;-76
2022/10/22 00:38:36;;;;;;;402.60;221.80;;;;;;;9.20;77.74;100541.88;347555;28;1324;-76
2022/10/22 00:38:46;;;;;;;403.77;218.63;;;;;;;9.21;77.86;100540.97;348808;28;1358;-76
2022/10/22 00:38:57;;;;;;;415.43;225.10;;;;;;;9.23;78.01;100540.06;345827;28;1239;-76
2022/10/22 00:39:07;;;;;;;414.73;221.80;;;;;;;9.20;77.66;100540.13;346139;28;899;-76
2022/10/22 00:39:20;;;;;;;414.58;225.23;;;;;;;9.20;77.91;100540.13;345209;28;1488;-76
2022/10/22 00:39:31;;;;;;;406.00;228.50;;;;;;;9.18;78.16;100541.91;344694;28;915;-76
2022/10/22 00:39:41;;;;;;;404.88;225.52;;;;;;;9.19;78.01;100542.75;347414;28;1318;-76
2022/10/22 00:39:52;;;;;;;403.00;224.73;;;;;;;9.18;78.12;100546.25;347816;28;979;-76
2022/10/22 00:40:03;;;;;;;407.73;225.77;;;;;;;9.16;78.16;100537.59;347557;28;987;-76
2022/10/22 00:40:13;;;;;;;407.88;222.95;;;;;;;9.16;78.21;100545.44;347540;28;1236;-76
2022/10/22 00:40:24;;;;;;;405.27;215.53;;;;;;;9.19;78.21;100545.38;346526;28;1015;-76
2022/10/22 00:40:34;;;;;;;409.88;218.93;;;;;;;9.19;77.76;100533.16;350234;28;1228;-76
2022/10/22 00:40:44;;;;;;;411.27;220.83;;;;;;;9.19;78.23;100538.38;350118;28;1472;-76
2022/10/22 00:40:55;;;;;;;410.85;218.57;;;;;;;9.22;78.11;100540.94;347836;28;1573;-76
2022/10/22 00:41:05;;;;;;;402.47;209.53;;;;;;;9.22;78.32;100546.16;345351;28;4512;-76
2022/10/22 00:41:16;;;;;;;399.70;206.15;;;;;;;9.21;78.42;100540.97;344215;28;6302;-76
2022/10/22 00:41:26;;;;;;;400.87;209.63;;;;;;;9.19;78.24;100543.63;341887;28;4193;-76
2022/10/22 00:41:36;;;;;;;405.55;219.15;;;;;;;9.20;78.46;100541.88;341924;28;1661;-76
2022/10/22 00:41:47;;;;;;;408.13;229.83;;;;;;;9.18;78.83;100541.91;343360;28;1281;-76
2022/10/22 00:41:58;;;;;;;408.98;233.20;;;;;;;9.18;77.99;100538.41;343039;28;1284;-76
2022/10/22 00:42:18;;;;;;;406.50;226.40;;;;;;;9.15;78.48;100544.56;345377;28;1193;-76
2022/10/22 00:42:29;;;;;;;405.85;210.25;;;;;;;9.15;78.54;100547.19;341850;28;1263;-76
2022/10/22 00:42:39;;;;;;;404.83;207.68;;;;;;;9.16;78.09;100537.59;338707;28;1518;-76
2022/10/22 00:42:50;;;;;;;405.17;215.50;;;;;;;9.16;78.68;100548.91;336750;29;1465;-76
2022/10/22 00:43:00;;;;;;;406.33;224.60;;;;;;;9.17;78.37;100541.91;339396;29;1206;-76
2022/10/22 00:43:12;;;;;;;407.00;229.37;;;;;;;9.17;78.40;100539.31;340050;29;1206;-76
2022/10/22 00:43:22;;;;;;;414.33;230.88;;;;;;;9.18;78.11;100541.91;338050;29;1416;-76
2022/10/22 00:43:33;;;;;;;414.48;228.50;;;;;;;9.19;78.70;100540.13;336863;29;1315;-76
2022/10/22 00:43:54;;;;;;;414.73;229.27;;;;;;;9.20;77.95;100539.25;340296;29;1289;-76
2022/10/22 00:44:05;;;;;;;404.62;222.24;;;;;;;9.19;78.01;100537.53;338062;29;1330;-77
2022/10/22 00:44:52;;;;;;;404.53;225.60;;;;;;;9.20;78.29;100539.25;338255;29;985;-77
2022/10/22 00:45:08;;;;;;;402.13;221.13;;;;;;;9.22;77.91;100532.25;336807;29;1413;-76
2022/10/22 00:45:24;;;;;;;400.48;213.80;;;;;;;9.21;78.07;100540.97;336690;29;1384;-76
2022/10/22 00:45:34;;;;;;;400.80;206.85;;;;;;;9.19;78.07;100533.16;334314;29;1552;-76
2022/10/22 00:45:45;;;;;;;404.33;211.57;;;;;;;9.19;78.09;100537.53;335469;29;1209;-76
2022/10/22 00:45:55;;;;;;;405.80;216.43;;;;;;;9.20;78.07;100536.63;335576;29;854;-76
2022/10/22 00:46:05;;;;;;;407.43;218.13;;;;;;;9.18;78.30;100535.81;333954;29;1036;-76
2022/10/22 00:46:16;;;;;;;404.73;214.80;;;;;;;9.20;78.17;100531.41;330311;29;1362;-76
2022/10/22 00:46:26;;;;;;;405.27;215.77;;;;;;;9.20;77.86;100537.50;330082;29;1874;-76
2022/10/22 00:46:37;;;;;;;404.60;215.93;;;;;;;9.22;77.63;100534.84;330140;29;1802;-76
2022/10/22 00:46:47;;;;;;;405.33;226.73;;;;;;;9.22;77.56;100538.34;330507;29;1300;-76
2022/10/22 00:46:57;;;;;;;407.98;226.85;;;;;;;9.22;77.90;100534.84;332665;29;1879;-76
2022/10/22 00:47:08;;;;;;;410.17;232.23;;;;;;;9.20;77.78;100539.25;335280;29;1817;-76
2022/10/22 00:47:18;;;;;;;410.45;229.85;;;;;;;9.21;77.93;100530.53;334296;29;832;-76
2022/10/22 00:47:48;;;;;;;407.67;229.43;;;;;;;9.22;77.88;100537.47;330127;29;2037;-76
2022/10/22 00:48:03;;;;;;;403.85;220.27;;;;;;;9.19;78.09;100530.56;326440;30;1065;-76
2022/10/22 00:48:17;;;;;;;406.77;229.27;;;;;;;9.18;77.81;100533.19;325288;30;1413;-76
2022/10/22 00:48:28;;;;;;;409.90;229.88;;;;;;;9.19;78.29;100534.91;324100;30;1852;-76
2022/10/22 00:48:39;;;;;;;404.13;214.30;;;;;;;9.17;77.76;100528.88;320454;30;1998;-76
2022/10/22 00:48:49;;;;;;;403.20;205.20;;;;;;;9.19;77.74;100532.31;318515;31;1482;-76
2022/10/22 00:49:01;;;;;;;400.15;204.70;;;;;;;9.20;77.77;100536.63;311660;31;1547;-76
2022/10/22 00:49:11;;;;;;;402.48;211.65;;;;;;;9.21;77.70;100535.75;317334;30;2382;-76
2022/10/22 00:49:22;;;;;;;403.45;221.07;;;;;;;9.22;77.42;100537.47;313815;31;2666;-76
2022/10/22 00:49:32;;;;;;;399.50;213.00;;;;;;;9.23;77.99;100533.97;309492;31;1203;-76
2022/10/22 00:49:43;;;;;;;399.73;209.57;;;;;;;9.22;77.91;100532.25;311595;31;2714;-76
2022/10/22 00:49:54;;;;;;;400.42;206.38;;;;;;;9.21;77.96;100538.34;312940;31;1687;-76
2022/10/22 00:50:11;;;;;;;405.63;207.98;;;;;;;9.22;77.58;100540.09;313744;31;1548;-76
2022/10/22 00:50:47;;;;;;;403.85;205.48;;;;;;;9.25;77.74;100526.97;310022;31;6429;-76
2022/10/22 00:51:06;;;;;;;401.45;208.82;;;;;;;9.24;77.40;100533.94;306397;31;4108;-76
2022/10/22 00:51:17;;;;;;;400.40;212.43;;;;;;;9.24;77.21;100525.25;305472;32;1924;-77
2022/10/22 00:51:28;;;;;;;401.63;213.23;;;;;;;9.26;77.54;100528.69;304460;32;3521;-76
2022/10/22 00:51:39;;;;;;;401.67;210.43;;;;;;;9.26;77.30;100528.69;304464;32;3432;-76
2022/10/22 00:51:49;;;;;;;399.10;212.03;;;;;;;9.26;77.46;100537.38;304276;32;1031;-76
2022/10/22 00:52:00;;;;;;;402.30;219.73;;;;;;;9.26;77.36;100532.16;303661;32;3274;-76
2022/10/22 00:52:10;;;;;;;402.50;218.60;;;;;;;9.25;77.53;100537.41;303413;32;2171;-76
2022/10/22 00:52:20;;;;;;;402.88;208.95;;;;;;;9.24;77.45;100531.31;302678;32;2251;-76
2022/10/22 00:52:31;;;;;;;401.00;204.23;;;;;;;9.23;77.57;100523.53;304159;32;1196;-76
2022/10/22 00:52:42;;;;;;;405.38;212.68;;;;;;;9.22;77.76;100533.09;301076;32;2798;-76
2022/10/22 00:52:53;;;;;;;409.17;216.00;;;;;;;9.23;77.28;100528.75;300130;32;3754;-76
2022/10/22 00:53:03;;;;;;;407.63;210.27;;;;;;;9.24;77.34;100535.69;300027;32;1179;-76
2022/10/22 00:53:16;;;;;;;405.37;211.47;;;;;;;9.23;77.79;100528.75;299095;32;3878;-76
2022/10/22 00:53:38;;;;;;;404.60;215.50;;;;;;;9.25;77.63;100530.44;294559;33;4503;-77
2022/10/22 00:53:52;;;;;;;403.30;207.30;;;;;;;9.24;77.39;100530.47;292425;33;1517;-76
2022/10/22 00:54:04;;;;;;;402.23;210.77;;;;;;;9.22;77.78;100524.41;293110;33;1125;-76
2022/10/22 00:54:14;;;;;;;403.92;219.05;;;;;;;9.22;77.93;100527.03;289265;33;4604;-75
2022/10/22 00:54:25;;;;;;;404.75;219.10;;;;;;;9.19;77.60;100530.56;285452;34;2757;-76
2022/10/22 00:54:35;;;;;;;406.77;218.87;;;;;;;9.18;78.19;100528.84;285018;33;3469;-76
2022/10/22 00:54:46;;;;;;;405.90;218.73;;;;;;;9.18;77.98;100530.59;288250;34;1296;-78
2022/10/22 00:54:57;;;;;;;406.88;224.70;;;;;;;9.19;78.15;100527.09;286395;34;4107;-78
2022/10/22 00:55:07;;;;;;;403.83;219.18;;;;;;;9.18;77.91;100535.81;284241;34;5651;-77
2022/10/22 00:55:18;;;;;;;406.27;220.00;;;;;;;9.17;78.13;100536.69;283506;34;1259;-77
2022/10/22 00:55:28;;;;;;;404.27;208.40;;;;;;;9.16;78.00;100527.16;283996;34;6161;-77